• Join FlightAware (Why Join?)
  • Login
  • US Flag 
 
05:20AM EST


 

Airport Tracker/Info


-or-


 

Live Flight TrackerFlight Track Log ✈ UAL4191 ✈ 21-Apr-2013 ✈ KIAH - KDTW

Flight Track Log - Related Links

Times and Time Zones

All times are in EDT time to prevent confusion due to time zone crossing. See the UAL4191 flight status page for this flight to view local times or setup timezone preferences in your user account.

Time Position Orientation Groundspeed Altitude Reporting Facility
EDT Latitude Longitude Course Direction KTS MPH feet Rate Location/Type
11:38AM 29.9786 -95.2981 North 157 181 700  Level Houston Center
11:39AM 30.0178 -95.2692 33° Northeast 210 242 2,100 1,440 Climbing Houston Center
11:40AM 30.0550 -95.2531 21° North 232 267 3,100 2,100 Climbing Houston Center
11:40AM 30.0939 -95.2503 North 269 310 4,500 2,460 Climbing Houston Center
11:41AM 30.3140 -95.1984 14° North  Level FlightAware Approximate
11:41AM 30.1247 -95.2603 344° North 250 288 5,700  Level Houston Center
11:41AM 30.1681 -95.2581 North 281 323 6,900 2,700 Climbing Houston Center
11:42AM 30.4247 -95.1543 23° Northeast  Level FlightAware Approximate
11:42AM 30.2189 -95.2450 13° North 288 331 8,500  Level Houston Center
11:42AM 30.2497 -95.2314 21° North 296 341 9,400 1,740 Climbing Houston Center
11:43AM 30.5310 -95.1000 North  Level FlightAware Approximate
11:43AM 30.2994 -95.2156 15° North 301 346 10,300  Level Houston Center
11:44AM 30.3931 -95.1819 17° North 347 399 11,100 1,080 Climbing Houston Center
11:45AM 30.4906 -95.1364 22° Northeast 378 435 12,600 1,500 Climbing Houston Center
11:46AM 30.5867 -95.0764 28° Northeast 388 447 14,200 1,680 Climbing Houston Center
11:47AM 30.7033 -95.0028 28° Northeast 395 455 16,100 1,680 Climbing Houston Center
11:48AM 30.8011 -94.9422 28° Northeast 397 457 17,700 1,320 Climbing Houston Center
11:49AM 30.8981 -94.8828 28° Northeast 393 452 18,900 1,200 Climbing Houston Center
11:50AM 30.9944 -94.8225 28° Northeast 394 453 20,300 1,260 Climbing Houston Center
11:50AM 31.0339 -94.7975 29° Northeast 392 451 20,700 1,020 Climbing Fort Worth Center
11:51AM 31.1328 -94.7342 29° Northeast 392 451 21,700 960 Climbing Fort Worth Center
11:52AM 31.2356 -94.6681 29° Northeast 402 463 22,700 960 Climbing Fort Worth Center
11:53AM 31.3425 -94.5944 30° Northeast 417 480 23,700 900 Climbing Fort Worth Center
11:54AM 31.4372 -94.5281 31° Northeast 430 495 24,600 900 Climbing Fort Worth Center
11:55AM 31.5419 -94.4567 30° Northeast 435 501 25,600 1,260 Climbing Fort Worth Center
11:56AM 31.6425 -94.3850 31° Northeast 435 501 27,200 1,620 Climbing Fort Worth Center
11:57AM 31.7411 -94.3158 31° Northeast 428 493 28,900 1,500 Climbing Fort Worth Center
11:58AM 31.8333 -94.2492 32° Northeast 405 466 30,300 1,200 Climbing Fort Worth Center
11:59AM 31.9300 -94.1847 29° Northeast 394 453 31,300 960 Climbing Fort Worth Center
12:00PM 32.0242 -94.1178 31° Northeast 394 453 32,300 960 Climbing Fort Worth Center
12:01PM 32.1225 -94.0481 31° Northeast 399 459 33,300 960 Climbing Fort Worth Center
12:02PM 32.2289 -93.9656 33° Northeast 399 459 34,300 840 Climbing Fort Worth Center
12:03PM 32.3253 -93.9028 29° Northeast 399 459 35,000 300 Climbing Fort Worth Center
12:04PM 32.4208 -93.8131 38° Northeast 406 467 35,000  Level Fort Worth Center
12:05PM 32.5161 -93.7131 41° Northeast 434 499 35,000  Level Fort Worth Center
12:06PM 32.6175 -93.6128 40° Northeast 448 516 35,000  Level Fort Worth Center
12:07PM 32.7206 -93.5097 40° Northeast 467 537 35,000  Level Fort Worth Center
12:08PM 32.8281 -93.4036 40° Northeast 489 563 35,000  Level Fort Worth Center
12:09PM 32.9350 -93.2950 40° Northeast 496 571 35,000  Level Fort Worth Center
12:10PM 33.0381 -93.1911 40° Northeast 496 571 35,000  Level Fort Worth Center
12:11PM 33.1328 -93.0922 41° Northeast 496 571 35,000  Level Fort Worth Center
12:12PM 33.2356 -92.9878 40° Northeast 490 564 35,000  Level Fort Worth Center
12:13PM 33.3383 -92.8833 40° Northeast 490 564 35,000  Level Fort Worth Center
12:16PM 33.5672 -92.6508 40° Northeast 496 571 35,000  Level Memphis Center
12:17PM 33.6675 -92.5436 42° Northeast 488 562 35,000  Level Memphis Center
12:18PM 33.7736 -92.4364 40° Northeast 488 562 35,000  Level Memphis Center
12:19PM 33.8775 -92.3289 41° Northeast 488 562 35,000  Level Memphis Center
12:20PM 33.9772 -92.2258 41° Northeast 488 562 35,000  Level Memphis Center
12:21PM 34.0769 -92.1175 42° Northeast 488 562 35,000  Level Memphis Center
12:22PM 34.1764 -92.0042 43° Northeast 488 562 35,000  Level Memphis Center
12:23PM 34.2781 -91.9006 40° Northeast 477 549 35,000  Level Memphis Center
12:24PM 34.3794 -91.7892 42° Northeast 477 549 35,000  Level Memphis Center
12:25PM 34.4914 -91.6750 40° Northeast 477 549 35,000  Level Memphis Center
12:26PM 34.5906 -91.5681 42° Northeast 477 549 35,000  Level Memphis Center
12:27PM 34.6811 -91.4733 41° Northeast 464 534 35,000  Level Memphis Center
12:28PM 34.7800 -91.3658 42° Northeast 473 544 35,000  Level Memphis Center
12:29PM 34.8811 -91.2558 42° Northeast 473 544 35,000  Level Memphis Center
12:30PM 34.9839 -91.1478 41° Northeast 473 544 35,000  Level Memphis Center
12:31PM 35.0828 -91.0372 42° Northeast 473 544 35,000  Level Memphis Center
12:32PM 35.1917 -90.9186 42° Northeast 473 544 35,000  Level Memphis Center
12:33PM 35.2922 -90.8072 42° Northeast 473 544 35,000  Level Memphis Center
12:34PM 35.3928 -90.6983 41° Northeast 479 551 35,000  Level Memphis Center
12:35PM 35.4931 -90.5867 42° Northeast 479 551 35,000  Level Memphis Center
12:36PM 35.5892 -90.4769 43° Northeast 473 544 35,000  Level Memphis Center
12:37PM 35.6894 -90.3672 42° Northeast 473 544 35,000  Level Memphis Center
12:38PM 35.7811 -90.2597 44° Northeast 467 537 35,000  Level Memphis Center
12:39PM 35.8811 -90.1519 41° Northeast 467 537 35,000  Level Memphis Center
12:40PM 35.9789 -90.0414 42° Northeast 472 543 35,000  Level Memphis Center
12:41PM 36.0764 -89.9281 43° Northeast 472 543 35,000  Level Memphis Center
12:42PM 36.1742 -89.8222 41° Northeast 472 543 35,000  Level Memphis Center
12:43PM 36.2694 -89.7108 43° Northeast 467 537 35,000  Level Memphis Center
12:44PM 36.3689 -89.6019 41° Northeast 467 537 35,000  Level Memphis Center
12:45PM 36.4683 -89.4925 41° Northeast 467 537 35,000  Level Memphis Center
12:46PM 36.5572 -89.3883 43° Northeast 467 537 35,000  Level Memphis Center
12:47PM 36.6542 -89.2758 43° Northeast 472 543 35,000  Level Memphis Center
12:48PM 36.7511 -89.1631 43° Northeast 472 543 35,000  Level Memphis Center
12:49PM 36.8478 -89.0475 44° Northeast 472 543 35,000  Level Memphis Center
12:50PM 36.9467 -88.9369 42° Northeast 472 543 35,000  Level Memphis Center
12:51PM 37.0431 -88.8208 44° Northeast 472 543 35,000  Level Memphis Center
12:52PM 37.1397 -88.7097 42° Northeast 467 537 35,000  Level Memphis Center
12:53PM 37.2361 -88.5958 43° Northeast 467 537 35,000  Level Memphis Center
12:54PM 37.3322 -88.4814 43° Northeast 467 537 35,000  Level Memphis Center
12:55PM 37.4633 -88.3194 44° Northeast 481 554 35,000  Level Indianapolis Center
12:56PM 37.5628 -88.2003 44° Northeast 485 558 35,000  Level Indianapolis Center
12:57PM 37.6822 -88.0681 41° Northeast 488 562 35,000  Level Indianapolis Center
12:58PM 37.7867 -87.9831 33° Northeast 483 556 35,000  Level Indianapolis Center
12:59PM 37.9014 -87.8933 32° Northeast 482 555 35,000  Level Indianapolis Center
01:00PM 38.0172 -87.8053 31° Northeast 482 555 35,000  Level Indianapolis Center
01:01PM 38.1328 -87.7153 31° Northeast 483 556 35,000  Level Indianapolis Center
01:02PM 38.2481 -87.6247 32° Northeast 483 556 35,000  Level Indianapolis Center
01:03PM 38.3878 -87.5167 31° Northeast 482 555 35,000  Level Indianapolis Center
01:04PM 38.5039 -87.4242 32° Northeast 482 555 35,000  Level Indianapolis Center
01:05PM 38.6203 -87.3325 32° Northeast 483 556 35,000  Level Indianapolis Center
01:06PM 38.7353 -87.2408 32° Northeast 481 554 35,000  Level Indianapolis Center
01:07PM 38.8503 -87.1489 32° Northeast 482 555 35,000  Level Indianapolis Center
01:08PM 38.9653 -87.0569 32° Northeast 483 556 35,000 -120 Level Indianapolis Center
01:09PM 39.0797 -86.9653 32° Northeast 482 555 34,800 -600 Descending Indianapolis Center
01:11PM 39.1925 -86.8747 32° Northeast 475 547 33,800 -900 Descending Indianapolis Center
01:12PM 39.3017 -86.7853 32° Northeast 462 532 33,000 -420 Descending Indianapolis Center
01:13PM 39.4131 -86.6953 32° Northeast 468 539 33,000  Level Indianapolis Center
01:14PM 39.5408 -86.5744 36° Northeast 471 542 33,000  Level Indianapolis Center
01:15PM 39.6494 -86.4733 36° Northeast 477 549 33,000  Level Indianapolis Center
01:16PM 39.7561 -86.3739 36° Northeast 472 543 33,000  Level Indianapolis Center
01:17PM 39.8628 -86.2725 36° Northeast 473 544 33,000  Level Indianapolis Center
01:17PM 39.9342 -86.2028 37° Northeast 471 542 33,000  Level Chicago Center
01:19PM 40.0414 -86.1014 36° Northeast 473 544 33,000  Level Chicago Center
01:19PM 40.0747 -86.0683 37° Northeast 472 543 33,000  Level Indianapolis Center
01:20PM 40.1678 -85.9806 36° Northeast 472 543 33,000 -180 Level Chicago Center
01:21PM 40.2742 -85.8783 36° Northeast 475 547 32,700 -540 Descending Chicago Center
01:22PM 40.3800 -85.7758 36° Northeast 474 545 31,900 -780 Descending Chicago Center
01:23PM 40.4961 -85.6636 36° Northeast 476 548 31,200 -780 Descending Chicago Center
01:24PM 40.5933 -85.5692 36° Northeast 478 550 30,300 -1,920 Descending Chicago Center
01:25PM 40.6961 -85.4689 36° Northeast 467 537 27,300 -3,180 Descending Chicago Center
01:26PM 40.8158 -85.3500 37° Northeast 453 521 23,800 -2,160 Descending Chicago Center
01:27PM 40.9164 -85.2514 37° Northeast 453 521 22,900 -960 Descending Chicago Center
01:28PM 41.0142 -85.1508 38° Northeast 451 519 21,900 -960 Descending Chicago Center
01:29PM 41.1103 -85.0500 38° Northeast 445 512 21,000 -480 Descending Chicago Center
01:30PM 41.2036 -84.9481 39° Northeast 440 506 21,000  Level Chicago Center
01:31PM 41.3178 -84.8239 39° Northeast 445 512 21,000 -420 Level Chicago Center
01:32PM 41.4281 -84.7819 16° North 440 506 20,200 -1,020 Descending Chicago Center
01:33PM 41.5425 -84.7881 358° North 420 483 19,000 -1,260 Descending Chicago Center
01:34PM 41.6556 -84.7944 358° North 412 474 17,700 -1,140 Descending Chicago Center
01:35PM 41.7536 -84.7308 26° Northeast 383 441 16,800 -1,260 Descending Cleveland Center
01:36PM 41.7958 -84.5942 67° East 363 418 15,300 -1,500 Descending Cleveland Center
01:37PM 41.8053 -84.4472 85° East 353 406 13,800 -1,560 Descending Cleveland Center
01:38PM 41.8111 -84.3278 86° East 373 429 12,600 -1,440 Descending Cleveland Center
01:38PM 41.8119 -84.3083 87° East 358 412 12,400 -540 Descending Cleveland Center
01:39PM 41.8183 -84.1664 86° East 374 430 12,000 -240 Descending Cleveland Center
01:40PM 41.8353 -84.0281 81° East 381 438 12,000  Level Cleveland Center
01:41PM 41.8969 -83.9169 53° Northeast 369 425 12,000  Level Cleveland Center
01:42PM 41.9644 -83.8142 49° Northeast 358 412 12,000  Level Cleveland Center
01:43PM 42.0275 -83.7225 47° Northeast 334 384 12,000  Level Cleveland Center
01:44PM 42.0947 -83.6250 47° Northeast 289 333 12,000  Level Cleveland Center
01:45PM 42.1372 -83.5775 40° Northeast 248 285 12,000  Level FAA TRACON SMA TRACON (SMA)
01:46PM 42.1806 -83.5489 26° Northeast 254 292 12,000  Level FAA TRACON SMA TRACON (SMA)
01:46PM 42.2003 -83.5364 25° Northeast 254 292 12,000 -300 Level FAA TRACON SMA TRACON (SMA)
01:46PM 42.2244 -83.5208 25° Northeast 253 291 11,800 -900 Descending FAA TRACON SMA TRACON (SMA)
01:47PM 42.2442 -83.5086 25° Northeast 253 291 11,400 -1,320 Descending FAA TRACON SMA TRACON (SMA)
01:47PM 42.2633 -83.4961 26° Northeast 249 287 10,900 -1,920 Descending FAA TRACON SMA TRACON (SMA)
01:47PM 42.2867 -83.4817 25° Northeast 241 277 10,100 -2,280 Descending FAA TRACON SMA TRACON (SMA)
01:48PM 42.3053 -83.4703 24° Northeast 239 275 9,400 -2,280 Descending FAA TRACON SMA TRACON (SMA)
01:48PM 42.3286 -83.4564 24° Northeast 237 273 8,600 -2,160 Descending FAA TRACON SMA TRACON (SMA)
01:48PM 42.3469 -83.4461 23° Northeast 234 269 8,000 -2,040 Descending FAA TRACON SMA TRACON (SMA)
01:49PM 42.3650 -83.4358 23° Northeast 232 267 7,300 -2,100 Descending FAA TRACON SMA TRACON (SMA)
01:49PM 42.3864 -83.4244 21° North 232 267 6,600 -1,800 Descending FAA TRACON SMA TRACON (SMA)
01:49PM 42.4017 -83.4056 42° Northeast 216 249 6,100 -1,500 Descending FAA TRACON SMA TRACON (SMA)
01:50PM 42.4106 -83.3831 62° Northeast 217 250 5,600 -1,500 Descending FAA TRACON SMA TRACON (SMA)
01:50PM 42.4142 -83.3589 79° East 243 280 5,100 -1,500 Descending FAA TRACON SMA TRACON (SMA)
01:50PM 42.4056 -83.3306 112° Southeast 209 241 4,600 -1,380 Descending FAA TRACON SMA TRACON (SMA)
01:51PM 42.4000 -83.3106 111° Southeast 206 237 4,200 -1,200 Descending FAA TRACON SMA TRACON (SMA)
01:51PM 42.3850 -83.2900 135° Southeast 204 235 3,800 -1,080 Descending FAA TRACON SMA TRACON (SMA)
01:51PM 42.3656 -83.2928 186° South 201 231 3,500 -600 Descending FAA TRACON SMA TRACON (SMA)
01:52PM 42.3500 -83.2967 190° South 186 214 3,400 -600 Descending FAA TRACON SMA TRACON (SMA)
01:52PM 42.3333 -83.3011 191° South 172 198 3,100 -900 Descending FAA TRACON SMA TRACON (SMA)
01:52PM 42.3167 -83.3053 190° South 166 191 2,800 -900 Descending FAA TRACON SMA TRACON (SMA)
01:53PM 42.3039 -83.3103 196° South 157 181 2,500 -900 Descending FAA TRACON SMA TRACON (SMA)
01:53PM 42.2894 -83.3200 206° Southwest 149 171 2,200 -900 Descending FAA TRACON SMA TRACON (SMA)